Time;durP1;ratioP1;P1;durP2;ratioP2;P2;SDS_P1;SDS_P2;PMS_P1;PMS_P2;Temp;Humidity;BMP_temperature;BMP_pressure;BME280_temperature;BME280_humidity;BME280_pressure;Samples;Min_cycle;Max_cycle;Signal;HPM_P1;HPM_P2
2022/12/08 00:02:07;;;;;;;10.52;5.13;;;;;;;5.39;97.00;101391.91;4993130;28;20077;-72
2022/12/08 00:09:20;;;;;;;6.10;3.88;;;;;;;5.37;97.19;101373.84;4998594;28;20061;-70
2022/12/08 00:10:23;;;;;;;11.60;4.72;;;;;;;5.32;97.16;101375.25;4999056;28;20053;-69
2022/12/08 00:12:52;;;;;;;10.15;4.50;;;;;;;5.34;97.58;101370.22;5001724;28;20272;-71
2022/12/08 00:15:23;;;;;;;11.60;4.63;;;;;;;5.36;97.12;101376.31;5006819;28;20053;-71
2022/12/08 00:17:51;;;;;;;8.35;4.32;;;;;;;5.38;97.77;101374.72;5007166;28;20047;-71
2022/12/08 00:20:20;;;;;;;8.65;4.72;;;;;;;5.40;97.82;101373.16;5002156;28;20050;-71
2022/12/08 00:22:49;;;;;;;10.20;4.90;;;;;;;5.38;97.57;101364.47;4999962;28;21136;-71
2022/12/08 00:25:17;;;;;;;11.20;4.45;;;;;;;5.41;97.93;101380.94;5001130;28;20057;-73
2022/12/08 00:27:46;;;;;;;8.10;4.43;;;;;;;5.42;97.67;101386.97;4999301;28;20456;-71
2022/12/08 00:30:14;;;;;;;8.73;4.60;;;;;;;5.42;98.12;101374.13;5001288;28;20051;-71
2022/12/08 00:32:45;;;;;;;9.77;5.07;;;;;;;5.43;97.96;101381.94;5000438;28;20042;-71
2022/12/08 00:35:13;;;;;;;10.65;4.93;;;;;;;5.43;97.16;101352.81;5007251;28;20050;-71
2022/12/08 00:37:42;;;;;;;12.48;5.20;;;;;;;5.40;97.33;101368.91;5006315;28;20566;-71
2022/12/08 00:40:11;;;;;;;8.52;4.07;;;;;;;5.32;96.40;101374.38;5000941;28;20061;-70
2022/12/08 00:42:40;;;;;;;10.40;4.88;;;;;;;5.24;97.02;101371.34;5002596;28;20046;-69
2022/12/08 00:45:09;;;;;;;9.65;5.05;;;;;;;5.20;98.29;101370.28;5003592;28;20107;-71
2022/12/08 00:47:38;;;;;;;7.70;4.22;;;;;;;5.23;98.27;101375.59;5004184;28;20037;-71
2022/12/08 00:50:09;;;;;;;7.15;4.22;;;;;;;5.23;98.20;101367.88;5000674;28;20108;-72
2022/12/08 00:52:38;;;;;;;10.25;4.65;;;;;;;5.23;98.76;101360.19;5005839;28;20049;-72
2022/12/08 00:55:07;;;;;;;9.70;4.60;;;;;;;5.24;98.61;101367.13;5002620;28;20683;-71
2022/12/08 00:57:35;;;;;;;8.88;4.30;;;;;;;5.25;98.19;101371.44;5002514;28;20050;-71
2022/12/08 01:00:04;;;;;;;10.23;4.85;;;;;;;5.29;99.08;101369.97;5002089;28;20042;-70
2022/12/08 01:02:33;;;;;;;10.13;4.57;;;;;;;5.32;99.37;101359.88;4998253;28;20460;-71
2022/12/08 01:05:02;;;;;;;7.72;3.75;;;;;;;5.35;98.75;101365.16;5005798;28;20061;-71
2022/12/08 01:07:32;;;;;;;8.00;4.32;;;;;;;5.37;98.27;101349.88;5003709;28;20104;-71
2022/12/08 01:10:01;;;;;;;8.82;4.15;;;;;;;5.35;98.13;101336.94;5003007;28;20100;-72
2022/12/08 01:12:30;;;;;;;9.38;4.28;;;;;;;5.36;98.79;101348.09;4995669;28;20144;-70
2022/12/08 01:14:59;;;;;;;8.63;4.53;;;;;;;5.36;98.00;101345.53;5004016;28;20504;-71
2022/12/08 01:17:27;;;;;;;8.07;4.47;;;;;;;5.35;98.78;101348.91;5004716;28;20050;-70
2022/12/08 01:19:56;;;;;;;8.27;4.07;;;;;;;5.33;98.06;101347.91;5005741;28;20057;-71
2022/12/08 01:22:25;;;;;;;7.53;3.70;;;;;;;5.30;98.65;101351.19;5006545;28;20038;-70
2022/12/08 01:24:55;;;;;;;8.60;4.50;;;;;;;5.32;99.49;101338.47;5002198;28;20096;-70
2022/12/08 01:27:24;;;;;;;7.68;4.32;;;;;;;5.33;99.49;101333.41;5002352;28;20069;-71
2022/12/08 01:29:52;;;;;;;8.95;4.65;;;;;;;5.35;99.76;101339.50;4999549;28;20058;-72
2022/12/08 01:32:27;;;;;;;10.98;5.22;;;;;;;5.36;99.89;101337.81;4998943;28;20593;-71
2022/12/08 01:34:55;;;;;;;16.27;6.75;;;;;;;5.32;100.00;101331.66;5001759;28;20945;-72
2022/12/08 01:37:24;;;;;;;10.88;5.65;;;;;;;5.34;100.00;101331.75;5004250;28;20054;-72
2022/12/08 01:39:54;;;;;;;14.50;6.03;;;;;;;5.34;100.00;101336.88;5004592;28;20829;-71
2022/12/08 01:42:24;;;;;;;13.63;6.38;;;;;;;5.35;99.50;101336.94;5004606;28;20046;-71
2022/12/08 01:45:03;;;;;;;11.07;5.90;;;;;;;5.31;98.79;101329.84;5004017;28;20046;-69
2022/12/08 01:47:38;;;;;;;10.48;5.95;;;;;;;5.26;99.32;101328.69;5004429;28;20099;-70
2022/12/08 01:50:11;;;;;;;11.60;5.82;;;;;;;5.29;100.00;101343.38;5007700;28;20089;-70
2022/12/08 01:52:42;;;;;;;10.20;5.20;;;;;;;5.29;100.00;101349.44;5006250;28;20046;-70
2022/12/08 01:55:18;;;;;;;14.57;5.80;;;;;;;5.30;100.00;101346.06;5002873;28;20042;-69
2022/12/08 01:57:49;;;;;;;12.32;4.90;;;;;;;5.29;100.00;101334.03;4996466;28;20042;-70
2022/12/08 02:00:21;;;;;;;11.73;5.57;;;;;;;5.30;100.00;101337.47;5001684;28;20057;-70
2022/12/08 02:02:56;;;;;;;12.15;5.10;;;;;;;5.32;100.00;101334.22;4998132;28;20054;-70
2022/12/08 02:05:26;;;;;;;11.80;4.93;;;;;;;5.35;100.00;101339.50;5005891;28;20407;-70
2022/12/08 02:07:57;;;;;;;12.00;5.45;;;;;;;5.37;100.00;101348.19;5037693;28;20092;-71
2022/12/08 02:10:30;;;;;;;10.55;5.10;;;;;;;5.38;100.00;101347.41;5026271;28;20052;-69
2022/12/08 02:13:01;;;;;;;8.93;5.22;;;;;;;5.40;100.00;101348.38;5018461;28;20538;-70
2022/12/08 02:15:38;;;;;;;12.68;5.95;;;;;;;5.41;100.00;101351.84;5024995;28;20134;-71
2022/12/08 02:18:21;;;;;;;11.32;6.07;;;;;;;5.42;100.00;101345.91;5026421;28;20112;-70
2022/12/08 02:20:54;;;;;;;;;;;;;;;5.42;100.00;101338.19;5023261;28;20051;-70
2022/12/08 02:23:32;;;;;;;13.82;7.50;;;;;;;5.38;100.00;101338.81;5029684;28;19941;-70
2022/12/08 02:26:23;;;;;;;11.35;6.28;;;;;;;5.39;100.00;101336.34;5026407;28;20042;-69
2022/12/08 02:29:23;;;;;;;11.40;5.72;;;;;;;5.39;100.00;101338.03;5021366;28;20052;-70
2022/12/08 02:32:04;;;;;;;13.00;5.95;;;;;;;5.38;100.00;101338.81;5027775;28;20049;-70
2022/12/08 02:34:41;;;;;;;13.73;7.15;;;;;;;5.36;100.00;101335.25;5027323;28;20057;-71
2022/12/08 02:37:17;;;;;;;17.30;6.80;;;;;;;5.38;100.00;101333.66;5025649;28;20057;-71
2022/12/08 02:39:53;;;;;;;11.18;5.80;;;;;;;5.39;100.00;101335.47;5028635;28;20049;-70
2022/12/08 02:42:28;;;;;;;11.50;6.72;;;;;;;5.39;100.00;101320.94;5018316;28;20508;-71
2022/12/08 02:45:01;;;;;;;12.20;6.10;;;;;;;5.38;99.92;101321.75;5016786;28;20050;-72
2022/12/08 02:47:32;;;;;;;9.82;5.85;;;;;;;5.33;100.00;101314.56;5025179;28;20053;-70
2022/12/08 02:50:03;;;;;;;14.43;7.00;;;;;;;5.30;100.00;101310.13;5032554;28;20126;-71
2022/12/08 02:52:44;;;;;;;13.68;7.10;;;;;;;5.26;100.00;101313.31;5027595;28;20084;-72
2022/12/08 02:55:27;;;;;;;13.38;6.10;;;;;;;5.25;100.00;101311.53;5027657;28;20478;-72
2022/12/08 02:58:22;;;;;;;12.05;6.28;;;;;;;5.26;100.00;101323.56;5022476;28;20552;-72
2022/12/08 03:01:08;;;;;;;9.20;5.53;;;;;;;5.27;100.00;101324.44;5029060;28;20045;-72
2022/12/08 03:03:46;;;;;;;12.90;6.05;;;;;;;5.29;100.00;101317.72;5016046;28;20053;-72
2022/12/08 03:06:26;;;;;;;11.60;6.10;;;;;;;5.30;100.00;101309.25;5030144;28;20057;-71
2022/12/08 03:09:00;;;;;;;12.48;6.00;;;;;;;5.29;100.00;101305.81;5028558;28;20115;-70
2022/12/08 03:11:35;;;;;;;13.85;6.53;;;;;;;5.31;100.00;101303.31;5024667;28;20085;-70
2022/12/08 03:14:07;;;;;;;12.40;6.57;;;;;;;5.31;100.00;101293.94;5026380;28;20052;-72
2022/12/08 03:16:41;;;;;;;11.98;6.47;;;;;;;5.31;100.00;101293.94;5024546;28;20103;-71
2022/12/08 03:19:14;;;;;;;10.07;6.25;;;;;;;5.31;100.00;101287.91;5028129;28;20508;-71
2022/12/08 03:21:47;;;;;;;10.15;6.50;;;;;;;5.31;100.00;101286.22;5024756;28;20093;-72
2022/12/08 03:24:18;;;;;;;13.85;6.72;;;;;;;5.30;100.00;101281.91;5032534;28;20862;-70
2022/12/08 03:26:51;;;;;;;14.40;7.20;;;;;;;5.22;100.00;101276.34;5026129;28;20465;-69
2022/12/08 03:29:20;;;;;;;12.73;5.70;;;;;;;5.14;100.00;101272.41;5021509;28;20053;-71
2022/12/08 03:31:53;;;;;;;12.77;6.43;;;;;;;5.11;100.00;101286.72;5024587;28;20045;-73
2022/12/08 03:34:25;;;;;;;11.65;6.35;;;;;;;5.10;100.00;101280.72;5023004;28;20053;-74
2022/12/08 03:36:55;;;;;;;9.95;5.93;;;;;;;5.09;100.00;101284.09;5021938;28;20041;-72
2022/12/08 03:39:25;;;;;;;10.13;5.68;;;;;;;5.11;100.00;101291.84;5027583;28;20041;-72
2022/12/08 03:41:53;;;;;;;9.90;5.47;;;;;;;5.11;100.00;101297.91;5027225;28;20446;-72
2022/12/08 03:44:22;;;;;;;12.52;5.78;;;;;;;5.12;100.00;101291.97;5022269;28;20554;-72
2022/12/08 03:46:50;;;;;;;9.68;5.72;;;;;;;5.16;100.00;101286.22;5027466;28;20596;-71
2022/12/08 03:49:19;;;;;;;10.45;5.93;;;;;;;5.17;100.00;101285.41;5021040;28;20076;-74
2022/12/08 03:51:47;;;;;;;14.13;6.80;;;;;;;5.19;100.00;101283.81;5027971;28;20053;-74
2022/12/08 03:54:18;;;;;;;10.30;6.10;;;;;;;5.18;100.00;101284.63;5026851;28;20058;-73
2022/12/08 03:56:46;;;;;;;11.70;6.50;;;;;;;5.19;100.00;101285.50;5024752;28;20057;-73
2022/12/08 03:59:15;;;;;;;24.20;10.45;;;;;;;5.19;100.00;101282.94;5027806;28;20049;-72
2022/12/08 04:01:43;;;;;;;26.58;12.75;;;;;;;5.17;100.00;101277.72;5024524;28;20042;-74
2022/12/08 04:04:12;;;;;;;23.98;12.25;;;;;;;5.18;100.00;101279.50;5027810;28;20050;-72
2022/12/08 04:06:41;;;;;;;26.80;10.88;;;;;;;5.17;100.00;101282.84;5022054;28;20053;-72
2022/12/08 04:09:09;;;;;;;20.17;8.38;;;;;;;5.20;100.00;101280.50;5021770;28;20503;-71
2022/12/08 04:11:39;;;;;;;22.00;9.65;;;;;;;5.22;100.00;101278.91;5028044;28;20053;-72
2022/12/08 04:14:08;;;;;;;22.55;9.48;;;;;;;5.23;100.00;101280.66;5027641;28;20064;-72
2022/12/08 04:16:37;;;;;;;20.42;9.15;;;;;;;5.23;100.00;101272.09;5020706;28;20064;-73
2022/12/08 04:19:05;;;;;;;13.80;7.43;;;;;;;5.25;100.00;101275.63;5023274;28;20057;-73
2022/12/08 04:21:40;;;;;;;15.52;6.93;;;;;;;5.24;100.00;101272.19;5016614;28;20061;-71
2022/12/08 04:24:10;;;;;;;14.13;7.25;;;;;;;5.25;100.00;101270.50;5021055;28;20711;-72
2022/12/08 04:26:40;;;;;;;17.45;7.95;;;;;;;5.25;100.00;101268.81;5022233;28;20061;-71
2022/12/08 04:29:09;;;;;;;12.77;6.47;;;;;;;5.26;100.00;101259.41;5025780;28;20053;-71
2022/12/08 04:31:37;;;;;;;11.05;6.03;;;;;;;5.27;100.00;101268.00;5025148;28;20049;-71
2022/12/08 04:34:06;;;;;;;10.38;5.38;;;;;;;5.28;100.00;101267.22;5022181;28;20057;-71
2022/12/08 04:36:35;;;;;;;13.70;6.68;;;;;;;5.30;100.00;101257.94;5023420;28;20053;-71
2022/12/08 04:39:03;;;;;;;16.20;8.07;;;;;;;5.30;100.00;101261.38;5021100;28;20072;-71
2022/12/08 04:41:32;;;;;;;14.80;7.63;;;;;;;5.24;100.00;101254.22;5020375;28;20049;-70
2022/12/08 04:44:02;;;;;;;14.38;7.18;;;;;;;5.29;100.00;101253.59;5017211;28;20053;-71
2022/12/08 04:46:30;;;;;;;11.73;6.50;;;;;;;5.32;100.00;101259.78;5022595;28;20578;-71
2022/12/08 04:48:59;;;;;;;14.80;6.72;;;;;;;5.33;100.00;101255.53;5019695;28;20546;-70
2022/12/08 04:51:28;;;;;;;14.07;6.68;;;;;;;5.34;100.00;101263.34;5026165;28;20088;-70
2022/12/08 04:53:56;;;;;;;12.13;6.82;;;;;;;5.33;100.00;101258.09;5033385;28;20053;-70
2022/12/08 04:56:25;;;;;;;15.77;7.60;;;;;;;5.30;100.00;101256.25;5023823;28;20499;-70
2022/12/08 04:58:53;;;;;;;15.63;7.72;;;;;;;5.28;100.00;101267.22;5022442;28;20045;-72
2022/12/08 05:01:23;;;;;;;14.98;7.35;;;;;;;5.28;100.00;101262.97;5016313;28;20183;-70
2022/12/08 05:03:52;;;;;;;14.15;7.43;;;;;;;5.29;100.00;101261.28;5026026;28;20128;-70
2022/12/08 05:06:21;;;;;;;16.60;8.25;;;;;;;5.29;100.00;101256.16;5026109;28;20049;-70
2022/12/08 05:08:49;;;;;;;15.40;7.45;;;;;;;5.27;100.00;101247.47;5024622;28;20466;-69
2022/12/08 05:11:18;;;;;;;11.60;6.65;;;;;;;5.26;100.00;101246.59;5024897;28;20053;-70
2022/12/08 05:13:47;;;;;;;13.65;7.15;;;;;;;5.27;100.00;101248.38;5028935;28;20055;-69
2022/12/08 05:16:16;;;;;;;17.17;7.60;;;;;;;5.27;100.00;101247.47;5018979;28;20053;-70
2022/12/08 05:18:47;;;;;;;16.83;7.32;;;;;;;5.24;100.00;101233.69;5027682;28;20045;-70
2022/12/08 05:21:15;;;;;;;12.23;6.60;;;;;;;5.24;100.00;101243.97;5024529;28;20042;-70
2022/12/08 05:23:44;;;;;;;15.65;6.55;;;;;;;5.24;100.00;101232.78;5025328;28;20048;-69
2022/12/08 05:26:12;;;;;;;13.30;6.65;;;;;;;5.23;100.00;101231.03;5027747;28;20049;-69
2022/12/08 05:28:41;;;;;;;12.80;6.65;;;;;;;5.20;100.00;101229.19;5027015;28;20480;-69
2022/12/08 05:31:09;;;;;;;12.40;6.93;;;;;;;5.19;100.00;101227.38;5028014;28;20063;-70
2022/12/08 05:33:38;;;;;;;11.63;6.63;;;;;;;5.21;100.00;101222.34;5022407;28;20054;-69
2022/12/08 05:36:09;;;;;;;16.92;7.55;;;;;;;5.19;100.00;101222.25;5024723;28;20095;-69
2022/12/08 05:38:37;;;;;;;13.68;6.60;;;;;;;5.18;100.00;101204.22;5025525;28;20107;-69
2022/12/08 05:41:07;;;;;;;16.00;5.97;;;;;;;5.18;100.00;101207.66;5027740;28;20066;-70
2022/12/08 05:43:36;;;;;;;10.95;5.95;;;;;;;5.20;100.00;101216.34;5026598;28;20470;-69
2022/12/08 05:46:04;;;;;;;13.30;6.88;;;;;;;5.23;100.00;101213.94;5023028;28;20058;-70
2022/12/08 05:48:33;;;;;;;13.48;7.03;;;;;;;5.29;100.00;101208.31;5024879;28;20530;-69
2022/12/08 05:51:02;;;;;;;14.57;6.88;;;;;;;5.31;100.00;101192.97;5022986;28;20600;-69
2022/12/08 05:53:32;;;;;;;14.38;7.43;;;;;;;5.34;100.00;101183.78;5029910;28;20296;-70
2022/12/08 05:56:01;;;;;;;11.25;6.30;;;;;;;5.39;100.00;101181.50;5022886;28;20499;-69
2022/12/08 05:58:29;;;;;;;16.55;7.07;;;;;;;5.39;100.00;101194.31;5027384;28;20049;-69
2022/12/08 06:00:58;;;;;;;13.30;7.72;;;;;;;5.42;100.00;101192.78;5019746;28;20675;-70
2022/12/08 06:03:26;;;;;;;44.28;22.63;;;;;;;5.43;100.00;101198.84;5026315;28;20470;-70
2022/12/08 06:05:55;;;;;;;16.70;8.60;;;;;;;5.45;100.00;101204.91;5024169;28;20060;-70
2022/12/08 06:08:24;;;;;;;12.15;6.85;;;;;;;5.47;100.00;101200.75;5012800;28;20112;-71
2022/12/08 06:10:54;;;;;;;15.70;6.95;;;;;;;5.48;100.00;101192.28;5002693;28;20112;-70
2022/12/08 06:13:22;;;;;;;11.90;7.00;;;;;;;5.48;100.00;101189.72;5005547;28;20053;-70
2022/12/08 06:15:51;;;;;;;13.68;6.80;;;;;;;5.49;100.00;101180.31;5004398;28;20061;-71
2022/12/08 06:18:19;;;;;;;17.08;7.93;;;;;;;5.52;100.00;101191.66;5008643;28;20066;-70
2022/12/08 06:20:48;;;;;;;12.82;6.68;;;;;;;5.53;100.00;101183.16;5006912;28;20053;-70
2022/12/08 06:23:16;;;;;;;17.95;7.03;;;;;;;5.56;100.00;101191.00;5003801;28;20587;-69
2022/12/08 06:25:45;;;;;;;16.90;7.82;;;;;;;5.59;100.00;101196.34;4997548;28;20046;-69
2022/12/08 06:28:15;;;;;;;13.30;6.93;;;;;;;5.61;100.00;101184.47;5004337;28;20077;-69
2022/12/08 06:30:44;;;;;;;12.48;6.40;;;;;;;5.60;100.00;101186.94;5006130;28;20053;-70
2022/12/08 06:33:12;;;;;;;13.80;7.15;;;;;;;5.62;100.00;101195.63;5002684;28;20140;-70
2022/12/08 06:35:41;;;;;;;19.35;8.88;;;;;;;5.64;100.00;101196.59;5008387;28;20061;-70
2022/12/08 06:38:09;;;;;;;16.63;7.22;;;;;;;5.66;100.00;101190.75;5010374;28;20050;-70
2022/12/08 06:40:38;;;;;;;19.90;8.02;;;;;;;5.67;100.00;101179.66;5009243;28;20053;-71
2022/12/08 06:43:06;;;;;;;21.77;8.80;;;;;;;5.71;100.00;101182.44;5009678;28;20119;-70
2022/12/08 06:45:37;;;;;;;17.42;8.27;;;;;;;5.73;100.00;101185.97;5012360;28;20049;-71
2022/12/08 06:48:05;;;;;;;24.20;10.18;;;;;;;5.74;100.00;101186.03;5008913;28;20599;-71
2022/12/08 06:50:34;;;;;;;20.85;9.27;;;;;;;5.74;100.00;101185.16;5006332;28;20060;-69
2022/12/08 06:53:03;;;;;;;13.80;7.72;;;;;;;5.72;100.00;101179.03;5007896;28;20065;-69
2022/12/08 06:55:31;;;;;;;11.77;5.93;;;;;;;5.67;100.00;101168.53;5005989;28;20045;-70
2022/12/08 06:58:00;;;;;;;13.77;6.35;;;;;;;5.64;100.00;101158.97;5007925;28;20104;-71
2022/12/08 07:00:28;;;;;;;17.88;7.63;;;;;;;5.56;100.00;101149.94;5005723;28;20471;-71
2022/12/08 07:02:58;;;;;;;15.23;7.68;;;;;;;5.63;100.00;101159.75;5008166;28;20120;-71
2022/12/08 07:05:27;;;;;;;16.77;7.88;;;;;;;5.66;100.00;101161.63;5002393;28;20065;-71
2022/12/08 07:07:55;;;;;;;14.85;7.65;;;;;;;5.67;100.00;101164.25;5015545;28;20553;-71
2022/12/08 07:10:24;;;;;;;14.57;7.20;;;;;;;5.64;100.00;101163.22;5025053;28;20052;-72
2022/12/08 07:12:52;;;;;;;13.43;7.80;;;;;;;5.65;100.00;101168.41;5026180;28;20049;-71
2022/12/08 07:15:21;;;;;;;16.15;7.15;;;;;;;5.67;100.00;101163.38;5027434;28;20069;-71
2022/12/08 07:17:50;;;;;;;16.02;7.75;;;;;;;5.71;100.00;101160.19;5029181;28;20053;-71
2022/12/08 07:20:20;;;;;;;12.48;6.75;;;;;;;5.75;100.00;101161.22;5032498;28;20060;-71
2022/12/08 07:22:53;;;;;;;17.42;7.57;;;;;;;5.77;100.00;101164.78;5029232;28;20049;-71
2022/12/08 07:25:21;;;;;;;13.02;7.22;;;;;;;5.79;100.00;101163.16;5029930;28;20569;-71
2022/12/08 07:27:51;;;;;;;15.68;6.80;;;;;;;5.81;100.00;101152.19;5030059;28;20061;-71
2022/12/08 07:30:20;;;;;;;15.85;8.02;;;;;;;5.82;100.00;101148.84;5025580;28;20048;-71
2022/12/08 07:32:49;;;;;;;12.90;7.32;;;;;;;5.84;100.00;101148.91;5033722;28;20053;-71
2022/12/08 07:35:19;;;;;;;14.02;7.18;;;;;;;5.82;100.00;101153.97;5028600;28;20801;-71
2022/12/08 07:37:48;;;;;;;11.20;6.43;;;;;;;5.83;100.00;101144.56;5026818;28;20049;-71
2022/12/08 07:40:16;;;;;;;12.73;6.60;;;;;;;5.85;100.00;101142.97;5021145;28;20514;-71
2022/12/08 07:42:45;;;;;;;12.07;6.72;;;;;;;5.86;100.00;101150.78;5026524;28;20080;-71
2022/12/08 07:45:13;;;;;;;13.07;6.80;;;;;;;5.90;100.00;101148.38;5026499;28;20057;-70
2022/12/08 07:47:42;;;;;;;13.57;7.60;;;;;;;5.89;100.00;101139.78;5024253;28;20630;-71
2022/12/08 07:50:11;;;;;;;11.85;6.22;;;;;;;5.87;100.00;101137.13;5027464;28;20061;-71
2022/12/08 07:52:41;;;;;;;12.02;5.85;;;;;;;5.84;100.00;101136.06;5022731;28;20045;-71
2022/12/08 07:55:10;;;;;;;11.23;5.95;;;;;;;5.83;100.00;101134.31;5027504;28;20060;-71
2022/12/08 07:57:39;;;;;;;10.15;5.53;;;;;;;5.84;100.00;101128.34;5026541;28;20148;-71
2022/12/08 08:00:09;;;;;;;11.95;5.43;;;;;;;5.88;100.00;101122.59;5027773;28;20037;-71
2022/12/08 08:02:37;;;;;;;11.38;5.93;;;;;;;5.90;100.00;101115.84;5025906;28;20052;-71
2022/12/08 08:05:06;;;;;;;11.63;5.93;;;;;;;5.94;100.00;101114.34;5027906;28;20045;-71
2022/12/08 08:07:35;;;;;;;12.20;5.30;;;;;;;5.93;100.00;101108.31;5024793;28;20069;-71
2022/12/08 08:10:07;;;;;;;11.35;5.75;;;;;;;5.94;100.00;101107.56;5024153;28;20562;-71
2022/12/08 08:12:36;;;;;;;13.48;6.18;;;;;;;5.96;100.00;101095.69;5021380;28;20452;-70
2022/12/08 08:15:06;;;;;;;9.50;6.00;;;;;;;5.97;100.00;101092.28;5025321;28;20057;-71
2022/12/08 08:17:36;;;;;;;11.18;6.57;;;;;;;5.98;100.00;101093.16;5026721;28;20722;-71
2022/12/08 08:20:06;;;;;;;9.95;5.93;;;;;;;5.98;100.00;101094.09;5029857;28;20537;-70
2022/12/08 08:22:35;;;;;;;11.77;6.30;;;;;;;5.97;100.00;101087.16;5022485;28;20092;-71
2022/12/08 08:25:05;;;;;;;12.02;6.22;;;;;;;5.98;100.00;101078.66;5023169;28;20099;-71
2022/12/08 08:27:34;;;;;;;12.38;7.05;;;;;;;6.02;100.00;101082.25;5026186;28;20100;-70
2022/12/08 08:30:02;;;;;;;13.13;6.05;;;;;;;6.02;100.00;101072.88;5021666;28;20049;-70
2022/12/08 08:32:34;;;;;;;11.52;6.68;;;;;;;6.02;100.00;101075.44;5022789;28;20050;-71
2022/12/08 08:35:03;;;;;;;16.23;6.70;;;;;;;6.01;100.00;101068.53;5025483;28;20057;-70
2022/12/08 08:37:31;;;;;;;13.63;7.57;;;;;;;6.02;100.00;101070.28;5026132;28;20045;-70
2022/12/08 08:40:00;;;;;;;15.50;7.28;;;;;;;6.03;100.00;101063.50;5025172;28;20048;-71
2022/12/08 08:42:30;;;;;;;11.82;6.63;;;;;;;6.07;100.00;101068.00;5024852;28;20049;-70
2022/12/08 08:44:59;;;;;;;13.48;7.80;;;;;;;6.06;100.00;101067.09;5027447;28;20063;-71
2022/12/08 08:47:27;;;;;;;16.13;6.38;;;;;;;6.09;100.00;101066.38;5029365;28;20041;-71
2022/12/08 08:49:56;;;;;;;14.02;6.78;;;;;;;6.10;100.00;101059.56;5022714;28;20061;-71
2022/12/08 08:52:24;;;;;;;17.85;7.97;;;;;;;6.12;100.00;101052.81;5022638;28;20061;-70
2022/12/08 08:54:53;;;;;;;16.23;7.88;;;;;;;6.14;100.00;101064.03;5026576;28;20071;-70
2022/12/08 08:57:21;;;;;;;14.45;6.53;;;;;;;6.15;100.00;101060.69;5024640;28;20075;-70
2022/12/08 08:59:52;;;;;;;14.05;6.95;;;;;;;6.17;100.00;101046.22;5017370;28;20058;-70
2022/12/08 09:02:21;;;;;;;12.20;6.10;;;;;;;6.17;100.00;101043.66;5024677;28;20103;-71
2022/12/08 09:04:50;;;;;;;10.57;5.30;;;;;;;6.19;100.00;101047.19;5023719;28;20927;-71
2022/12/08 09:07:18;;;;;;;11.43;6.15;;;;;;;6.20;100.00;101046.38;5024690;28;20967;-71
2022/12/08 09:09:47;;;;;;;12.27;6.00;;;;;;;6.15;100.00;101035.88;5002726;28;20669;-71
2022/12/08 09:12:16;;;;;;;10.10;5.22;;;;;;;6.19;100.00;101036.91;5005207;28;20136;-72
2022/12/08 09:14:44;;;;;;;9.82;4.85;;;;;;;6.23;100.00;101044.88;5006257;28;20766;-71
2022/12/08 09:17:15;;;;;;;11.77;5.05;;;;;;;6.23;100.00;101038.81;5003045;28;20061;-72
2022/12/08 09:19:44;;;;;;;7.90;5.78;;;;;;;6.22;100.00;101037.06;5004547;28;20594;-71
2022/12/08 09:22:15;;;;;;;12.50;6.07;;;;;;;6.21;100.00;101031.06;5001601;28;20051;-72
2022/12/08 09:24:43;;;;;;;10.98;5.65;;;;;;;6.21;100.00;101031.06;5003731;28;20076;-71
2022/12/08 09:27:12;;;;;;;10.52;5.60;;;;;;;6.21;100.00;101031.06;5001713;28;20038;-71
2022/12/08 09:29:41;;;;;;;9.82;5.22;;;;;;;6.20;100.00;101036.09;4998469;28;20735;-71
2022/12/08 09:32:10;;;;;;;11.07;5.35;;;;;;;6.21;100.00;101037.88;5002725;28;21049;-71
2022/12/08 09:34:40;;;;;;;11.38;5.40;;;;;;;6.23;100.00;101038.81;5005985;28;20563;-71
2022/12/08 09:37:09;;;;;;;11.82;6.30;;;;;;;6.24;100.00;101035.47;5004383;28;20061;-71
2022/12/08 09:39:44;;;;;;;10.00;5.00;;;;;;;6.25;100.00;101032.06;5007605;28;20137;-72
2022/12/08 09:42:14;;;;;;;9.18;5.78;;;;;;;6.24;100.00;101027.75;5005700;28;20494;-71
2022/12/08 09:44:56;;;;;;;11.48;5.13;;;;;;;6.22;100.00;101026.78;5005886;28;20653;-71
2022/12/08 09:47:28;;;;;;;10.82;5.35;;;;;;;6.17;100.00;101028.25;5001725;28;20054;-71
2022/12/08 09:50:01;;;;;;;;;;;;;;;6.13;100.00;101041.72;5004890;28;20614;-71
2022/12/08 09:52:34;;;;;;;9.90;4.93;;;;;;;6.12;100.00;101039.97;5004169;28;20486;-72
2022/12/08 09:55:12;;;;;;;9.52;5.60;;;;;;;6.11;100.00;101035.63;5005173;28;20133;-72
2022/12/08 09:57:41;;;;;;;10.35;5.18;;;;;;;6.08;100.00;101050.06;4999120;28;20064;-71
2022/12/08 10:00:15;;;;;;;10.25;4.80;;;;;;;6.10;100.00;101039.03;5004856;28;20057;-71
2022/12/08 10:02:47;;;;;;;11.20;6.05;;;;;;;6.08;100.00;101026.97;5002378;28;20111;-71
2022/12/08 10:05:17;;;;;;;8.23;4.87;;;;;;;6.08;100.00;101044.06;5001656;28;20050;-72
2022/12/08 10:07:49;;;;;;;10.80;5.20;;;;;;;6.10;100.00;101046.72;5008897;28;20049;-72
2022/12/08 10:10:30;;;;;;;9.30;4.70;;;;;;;6.13;100.00;101041.72;5021089;28;20675;-72
2022/12/08 10:13:05;;;;;;;10.65;5.70;;;;;;;6.16;100.00;101041.88;5026954;28;21308;-72
2022/12/08 10:15:42;;;;;;;11.15;5.28;;;;;;;6.19;100.00;101031.78;5026892;28;20580;-72
2022/12/08 10:18:16;;;;;;;9.18;4.95;;;;;;;6.21;100.00;101025.03;5023260;28;20050;-73
2022/12/08 10:20:49;;;;;;;6.93;4.78;;;;;;;6.21;100.00;101031.06;5028373;28;20494;-72
2022/12/08 10:23:27;;;;;;;8.55;4.45;;;;;;;6.19;100.00;101018.94;5023828;28;20571;-72
2022/12/08 10:26:02;;;;;;;10.32;5.15;;;;;;;6.20;100.00;101012.97;5028002;28;20049;-72
2022/12/08 10:28:32;;;;;;;7.57;4.88;;;;;;;6.16;100.00;101005.91;5027119;28;20723;-72
2022/12/08 10:31:01;;;;;;;8.30;4.97;;;;;;;6.13;100.00;101000.63;5029515;28;20062;-72
2022/12/08 10:33:32;;;;;;;10.40;5.30;;;;;;;6.10;100.00;100997.91;5026491;28;20730;-71
2022/12/08 10:36:03;;;;;;;8.32;4.75;;;;;;;6.10;100.00;100985.06;5030279;28;20157;-71
2022/12/08 10:38:33;;;;;;;5.72;3.78;;;;;;;6.10;100.00;100985.94;5024693;28;21207;-71
2022/12/08 10:41:07;;;;;;;8.52;4.68;;;;;;;6.10;100.00;100985.94;5028200;28;20049;-71
2022/12/08 10:43:40;;;;;;;7.53;4.20;;;;;;;6.10;100.00;100992.78;5025247;28;20072;-72
2022/12/08 10:46:14;;;;;;;6.78;4.00;;;;;;;6.13;100.00;100992.91;5026862;28;20042;-72
2022/12/08 10:48:50;;;;;;;9.68;4.35;;;;;;;6.18;100.00;100996.59;5027272;28;20061;-71
2022/12/08 10:51:39;;;;;;;6.60;4.10;;;;;;;6.22;100.00;100996.84;5026163;28;20054;-72
2022/12/08 10:54:29;;;;;;;6.95;3.55;;;;;;;6.27;100.00;100994.50;5024953;28;20446;-71
2022/12/08 10:56:58;;;;;;;6.47;3.63;;;;;;;6.29;100.00;100992.88;5023747;28;20432;-72
2022/12/08 10:59:28;;;;;;;8.88;4.70;;;;;;;6.32;100.00;100993.03;5028076;28;20128;-72
2022/12/08 11:01:57;;;;;;;5.90;3.97;;;;;;;6.34;100.00;100986.28;5027526;28;20060;-71
2022/12/08 11:04:35;;;;;;;7.72;4.40;;;;;;;6.35;100.00;100988.06;5021201;28;20049;-72
2022/12/08 11:07:07;;;;;;;6.70;4.10;;;;;;;6.37;100.00;100999.31;5026902;28;20831;-70
2022/12/08 11:09:45;;;;;;;6.80;4.00;;;;;;;6.34;100.00;100994.00;5007108;28;20080;-72
2022/12/08 11:12:16;;;;;;;8.48;4.20;;;;;;;6.40;100.00;100999.44;5008079;28;20578;-72
2022/12/08 11:14:52;;;;;;;8.23;3.72;;;;;;;6.40;100.00;100996.88;5003733;28;20049;-72
2022/12/08 11:17:27;;;;;;;10.60;4.32;;;;;;;6.39;100.00;100995.13;5003984;28;20136;-72
2022/12/08 11:20:00;;;;;;;7.75;4.32;;;;;;;6.36;100.00;100994.97;5010321;28;20042;-72
2022/12/08 11:22:32;;;;;;;6.10;4.13;;;;;;;6.28;100.00;100980.84;5006484;28;20046;-72
2022/12/08 11:25:03;;;;;;;6.20;3.72;;;;;;;6.32;100.00;100977.59;5003712;28;20081;-72
2022/12/08 11:27:35;;;;;;;8.43;4.68;;;;;;;6.35;100.00;100987.19;5005269;28;20045;-72
2022/12/08 11:30:14;;;;;;;7.60;3.57;;;;;;;6.38;100.00;100970.22;5004646;28;20621;-72
2022/12/08 11:32:45;;;;;;;10.35;4.28;;;;;;;6.39;100.00;100971.09;4998432;28;20416;-72
2022/12/08 11:35:22;;;;;;;7.15;3.65;;;;;;;6.40;100.00;100962.59;5004923;28;20046;-72
2022/12/08 11:37:56;;;;;;;8.27;4.45;;;;;;;6.40;100.00;100950.63;5005346;28;20050;-72
2022/12/08 11:40:29;;;;;;;6.47;4.05;;;;;;;6.41;100.00;100942.09;5004232;28;20472;-72
2022/12/08 11:43:07;;;;;;;7.53;4.50;;;;;;;6.40;100.00;100935.19;5004689;28;20092;-71